UTN7421 EPPO-HEGN
Flight info
| Callsign | UTN7421 |
|---|---|
| Flight time | 4h 9m |
| Altitude | 35000 |
| Route | XIDNA L617 REGLI DCT DEMOP DCT BUDOP DCT NAVOD DCT ADORU UG80 EKI UL854 KULAR UT39 TOMBI M855 RASDA A16 CVO L315 HGD |
| Aircraft | B738/M-SDE2E3FGHIRWXY/LB1 |
Departure
| Time | 2026-04-24 19:35 |
|---|---|
| Airport | Poznań-Ławica Airport (EPPO) |
Arrival
| Time | 2026-04-24 23:45 |
|---|---|
| Airport | Hurghada International Airport (HEGN) |
| Time | Latitude | Longitude | Altitude | Speed | Heading |
|---|---|---|---|---|---|
| 2026-04-24 18:56 | 52.41570 | 16.83054 | 287 ft | 0 kts | 193° |
| 2026-04-24 19:27 | 52.41571 | 16.83055 | 260 ft | 2 kts | 193° |
| 2026-04-24 19:27 | 52.41596 | 16.83063 | 294 ft | 4 kts | 187° |
| 2026-04-24 19:27 | 52.41622 | 16.83064 | 292 ft | 4 kts | 162° |
| 2026-04-24 19:28 | 52.41637 | 16.83045 | 292 ft | 1 kts | 103° |
| 2026-04-24 19:28 | 52.41638 | 16.83044 | 291 ft | 1 kts | 103° |
| 2026-04-24 19:31 | 52.41637 | 16.83046 | 292 ft | 1 kts | 103° |
| 2026-04-24 19:31 | 52.41630 | 16.83097 | 292 ft | 8 kts | 103° |
| 2026-04-24 19:31 | 52.41615 | 16.83210 | 287 ft | 13 kts | 103° |
| 2026-04-24 19:32 | 52.41592 | 16.83376 | 287 ft | 16 kts | 103° |
| 2026-04-24 19:32 | 52.41588 | 16.83403 | 287 ft | 0 kts | 103° |
| 2026-04-24 19:32 | 52.41582 | 16.83451 | 291 ft | 11 kts | 103° |
| 2026-04-24 19:32 | 52.41567 | 16.83621 | 287 ft | 17 kts | 92° |
| 2026-04-24 19:33 | 52.41561 | 16.83818 | 287 ft | 14 kts | 93° |
| 2026-04-24 19:33 | 52.41607 | 16.83951 | 287 ft | 14 kts | 47° |
| 2026-04-24 19:33 | 52.41682 | 16.84010 | 287 ft | 11 kts | 19° |
| 2026-04-24 19:33 | 52.41720 | 16.84033 | 287 ft | 0 kts | 21° |
| 2026-04-24 19:34 | 52.41750 | 16.84052 | 318 ft | 10 kts | 21° |
| 2026-04-24 19:34 | 52.41812 | 16.84097 | 290 ft | 9 kts | 16° |
| 2026-04-24 19:34 | 52.41826 | 16.84079 | 288 ft | 5 kts | 291° |
| 2026-04-24 19:34 | 52.41838 | 16.83997 | 288 ft | 14 kts | 284° |
| 2026-04-24 19:35 | 52.41948 | 16.83434 | 288 ft | 90 kts | 287° |
| 2026-04-24 19:35 | 52.42207 | 16.82095 | 294 ft | 154 kts | 287° |
| 2026-04-24 19:35 | 52.42573 | 16.80233 | 716 ft | 175 kts | 284° |
| 2026-04-24 19:35 | 52.42819 | 16.78384 | 1884 ft | 162 kts | 283° |
| 2026-04-24 19:36 | 52.43060 | 16.76484 | 2567 ft | 179 kts | 283° |
| 2026-04-24 19:36 | 52.43369 | 16.74447 | 2991 ft | 195 kts | 290° |
| 2026-04-24 19:36 | 52.43822 | 16.72231 | 3208 ft | 214 kts | 290° |
| 2026-04-24 19:36 | 52.44316 | 16.69864 | 3614 ft | 224 kts | 290° |
| 2026-04-24 19:37 | 52.44827 | 16.67400 | 4056 ft | 234 kts | 290° |
| 2026-04-24 19:37 | 52.45359 | 16.64813 | 4618 ft | 243 kts | 290° |
| 2026-04-24 19:37 | 52.45716 | 16.63060 | 5102 ft | 245 kts | 290° |
| 2026-04-24 19:37 | 52.46434 | 16.59518 | 6183 ft | 245 kts | 290° |
| 2026-04-24 19:38 | 52.46791 | 16.57755 | 6670 ft | 246 kts | 290° |
| 2026-04-24 19:38 | 52.47327 | 16.55078 | 7360 ft | 249 kts | 288° |
| 2026-04-24 19:38 | 52.47436 | 16.52187 | 7936 ft | 262 kts | 262° |
| 2026-04-24 19:38 | 52.46733 | 16.49390 | 8622 ft | 273 kts | 238° |
| 2026-04-24 19:39 | 52.45308 | 16.47250 | 9272 ft | 286 kts | 213° |
| 2026-04-24 19:39 | 52.43384 | 16.46209 | 9858 ft | 300 kts | 186° |
| 2026-04-24 19:39 | 52.41284 | 16.46563 | 10430 ft | 307 kts | 163° |
| 2026-04-24 19:39 | 52.39291 | 16.47842 | 11066 ft | 309 kts | 156° |
| 2026-04-24 19:40 | 52.37325 | 16.49343 | 11675 ft | 313 kts | 155° |
| 2026-04-24 19:40 | 52.35374 | 16.50886 | 12269 ft | 316 kts | 155° |
| 2026-04-24 19:40 | 52.33335 | 16.52498 | 12777 ft | 326 kts | 155° |
| 2026-04-24 19:40 | 52.31260 | 16.54131 | 12920 ft | 346 kts | 155° |
| 2026-04-24 19:41 | 52.29027 | 16.55881 | 13093 ft | 366 kts | 155° |
| 2026-04-24 19:41 | 52.26669 | 16.57707 | 13345 ft | 381 kts | 155° |
| 2026-04-24 19:41 | 52.24238 | 16.59568 | 13857 ft | 388 kts | 156° |
| 2026-04-24 19:41 | 52.21781 | 16.61432 | 14469 ft | 389 kts | 156° |
| 2026-04-24 19:42 | 52.19347 | 16.63267 | 15071 ft | 391 kts | 156° |
| 2026-04-24 19:42 | 52.16860 | 16.65134 | 15635 ft | 395 kts | 156° |
| 2026-04-24 19:42 | 52.14348 | 16.67013 | 16206 ft | 398 kts | 157° |
| 2026-04-24 19:42 | 52.11819 | 16.68902 | 16760 ft | 401 kts | 157° |
| 2026-04-24 19:43 | 52.09267 | 16.70805 | 17330 ft | 404 kts | 157° |
| 2026-04-24 19:43 | 52.06699 | 16.72717 | 17896 ft | 407 kts | 157° |
| 2026-04-24 19:43 | 52.04111 | 16.74642 | 18435 ft | 411 kts | 157° |
| 2026-04-24 19:43 | 52.01505 | 16.76578 | 18885 ft | 414 kts | 158° |
| 2026-04-24 19:44 | 51.98871 | 16.78532 | 19342 ft | 418 kts | 158° |
| 2026-04-24 19:44 | 51.96211 | 16.80503 | 19786 ft | 421 kts | 158° |
| 2026-04-24 19:44 | 51.93562 | 16.82464 | 20227 ft | 425 kts | 158° |
| 2026-04-24 19:44 | 51.90860 | 16.84462 | 20677 ft | 428 kts | 158° |
| 2026-04-24 19:45 | 51.88132 | 16.86476 | 21120 ft | 432 kts | 158° |
| 2026-04-24 19:45 | 51.85392 | 16.88494 | 21546 ft | 435 kts | 158° |
| 2026-04-24 19:45 | 51.82572 | 16.90437 | 21703 ft | 445 kts | 161° |
| 2026-04-24 19:45 | 51.79666 | 16.92288 | 21973 ft | 451 kts | 161° |
| 2026-04-24 19:46 | 51.76724 | 16.94106 | 22414 ft | 453 kts | 162° |
| 2026-04-24 19:46 | 51.73771 | 16.95920 | 22873 ft | 455 kts | 162° |
| 2026-04-24 19:46 | 51.70806 | 16.97750 | 23274 ft | 458 kts | 162° |
| 2026-04-24 19:46 | 51.67821 | 16.99604 | 23657 ft | 462 kts | 161° |
| 2026-04-24 19:47 | 51.64813 | 17.01483 | 23995 ft | 464 kts | 161° |
| 2026-04-24 19:47 | 51.61800 | 17.03372 | 24344 ft | 466 kts | 161° |
| 2026-04-24 19:47 | 51.58771 | 17.05274 | 24697 ft | 468 kts | 161° |
| 2026-04-24 19:47 | 51.55731 | 17.07182 | 25030 ft | 470 kts | 161° |
| 2026-04-24 19:48 | 51.52675 | 17.09097 | 25349 ft | 472 kts | 161° |
| 2026-04-24 19:48 | 51.49609 | 17.11016 | 25664 ft | 474 kts | 161° |
| 2026-04-24 19:48 | 51.43466 | 17.14851 | 26284 ft | 478 kts | 161° |
| 2026-04-24 19:49 | 51.37252 | 17.18717 | 26870 ft | 483 kts | 162° |
| 2026-04-24 19:49 | 51.30954 | 17.22624 | 27475 ft | 486 kts | 162° |
| 2026-04-24 19:50 | 51.21426 | 17.28513 | 28327 ft | 492 kts | 162° |
| 2026-04-24 19:50 | 51.18218 | 17.30490 | 28602 ft | 493 kts | 162° |
| 2026-04-24 19:51 | 51.11781 | 17.34447 | 29093 ft | 498 kts | 162° |
| 2026-04-24 19:51 | 51.08543 | 17.36434 | 29349 ft | 499 kts | 162° |
| 2026-04-24 19:52 | 51.02050 | 17.40409 | 29986 ft | 499 kts | 162° |
| 2026-04-24 19:52 | 50.98801 | 17.42394 | 30338 ft | 498 kts | 162° |
| 2026-04-24 19:52 | 50.95611 | 17.44341 | 30612 ft | 497 kts | 162° |
| 2026-04-24 19:52 | 50.92376 | 17.46311 | 30841 ft | 498 kts | 162° |
| 2026-04-24 19:53 | 50.89141 | 17.48277 | 31090 ft | 498 kts | 162° |
| 2026-04-24 19:53 | 50.85901 | 17.50244 | 31353 ft | 498 kts | 162° |
| 2026-04-24 19:53 | 50.79434 | 17.54161 | 31870 ft | 497 kts | 162° |
| 2026-04-24 19:54 | 50.76201 | 17.56114 | 32103 ft | 498 kts | 162° |
| 2026-04-24 19:54 | 50.72962 | 17.58069 | 32347 ft | 497 kts | 162° |
| 2026-04-24 19:54 | 50.69712 | 17.60027 | 32596 ft | 497 kts | 162° |
| 2026-04-24 19:54 | 50.66481 | 17.61971 | 32825 ft | 497 kts | 162° |
| 2026-04-24 19:55 | 50.64339 | 17.63259 | 32966 ft | 497 kts | 162° |
| 2026-04-24 19:55 | 50.60053 | 17.65830 | 33282 ft | 497 kts | 162° |
| 2026-04-24 19:55 | 50.56812 | 17.67772 | 33499 ft | 497 kts | 162° |
| 2026-04-24 19:55 | 50.53583 | 17.69703 | 33709 ft | 497 kts | 162° |
| 2026-04-24 19:56 | 50.50344 | 17.71638 | 33912 ft | 498 kts | 162° |
| 2026-04-24 19:56 | 50.47090 | 17.73578 | 34106 ft | 498 kts | 162° |
| 2026-04-24 19:56 | 50.43861 | 17.75502 | 34335 ft | 496 kts | 162° |
| 2026-04-24 19:56 | 50.40635 | 17.77421 | 34606 ft | 494 kts | 162° |
| 2026-04-24 19:57 | 50.37432 | 17.79324 | 34876 ft | 491 kts | 162° |
| 2026-04-24 19:57 | 50.34237 | 17.81219 | 35058 ft | 491 kts | 162° |
| 2026-04-24 19:57 | 50.31081 | 17.83086 | 35061 ft | 494 kts | 162° |
| 2026-04-24 19:58 | 50.24631 | 17.86895 | 35072 ft | 492 kts | 162° |
| 2026-04-24 19:58 | 50.18233 | 17.90666 | 35062 ft | 489 kts | 162° |
| 2026-04-24 19:59 | 50.12091 | 17.95068 | 35061 ft | 489 kts | 146° |
| 2026-04-24 19:59 | 50.06605 | 18.01319 | 35068 ft | 488 kts | 143° |
| 2026-04-24 20:00 | 50.01159 | 18.07638 | 35069 ft | 488 kts | 144° |
| 2026-04-24 20:00 | 49.95684 | 18.13884 | 35058 ft | 489 kts | 144° |
| 2026-04-24 20:01 | 49.90153 | 18.20112 | 35060 ft | 491 kts | 144° |
| 2026-04-24 20:01 | 49.84649 | 18.26277 | 35065 ft | 493 kts | 144° |
| 2026-04-24 20:02 | 49.80811 | 18.30566 | 35061 ft | 495 kts | 144° |
| 2026-04-24 20:02 | 49.74293 | 18.37834 | 35057 ft | 497 kts | 144° |
| 2026-04-24 20:03 | 49.68668 | 18.44089 | 35053 ft | 498 kts | 144° |
| 2026-04-24 20:03 | 49.63071 | 18.50296 | 35057 ft | 499 kts | 144° |
| 2026-04-24 20:04 | 49.57424 | 18.56538 | 35053 ft | 498 kts | 144° |
| 2026-04-24 20:04 | 49.51791 | 18.62746 | 35042 ft | 496 kts | 144° |
| 2026-04-24 20:05 | 49.46176 | 18.68901 | 35026 ft | 495 kts | 144° |
| 2026-04-24 20:05 | 49.40578 | 18.75032 | 35033 ft | 493 kts | 144° |
| 2026-04-24 20:06 | 49.35025 | 18.81102 | 35019 ft | 492 kts | 144° |
| 2026-04-24 20:06 | 49.29449 | 18.87179 | 35026 ft | 491 kts | 144° |
| 2026-04-24 20:07 | 49.24809 | 18.92223 | 35024 ft | 490 kts | 144° |
| 2026-04-24 20:07 | 49.18311 | 18.99266 | 35041 ft | 490 kts | 144° |
| 2026-04-24 20:08 | 49.12756 | 19.05268 | 35042 ft | 489 kts | 144° |
| 2026-04-24 20:08 | 49.07234 | 19.11219 | 35043 ft | 489 kts | 144° |
| 2026-04-24 20:09 | 49.01652 | 19.17217 | 35045 ft | 490 kts | 144° |
| 2026-04-24 20:09 | 48.96063 | 19.23206 | 35029 ft | 491 kts | 144° |
| 2026-04-24 20:10 | 48.90468 | 19.29186 | 35045 ft | 491 kts | 144° |
| 2026-04-24 20:10 | 48.84858 | 19.35165 | 35024 ft | 492 kts | 144° |
| 2026-04-24 20:11 | 48.79241 | 19.41135 | 35030 ft | 493 kts | 144° |
| 2026-04-24 20:11 | 48.73616 | 19.47098 | 35025 ft | 493 kts | 144° |
| 2026-04-24 20:12 | 48.68006 | 19.52976 | 35027 ft | 493 kts | 144° |
| 2026-04-24 20:12 | 48.62336 | 19.58818 | 35018 ft | 493 kts | 144° |
| 2026-04-24 20:13 | 48.56667 | 19.64641 | 35021 ft | 492 kts | 144° |
| 2026-04-24 20:13 | 48.51015 | 19.70445 | 35021 ft | 490 kts | 144° |
| 2026-04-24 20:14 | 48.45377 | 19.76225 | 35012 ft | 489 kts | 144° |
| 2026-04-24 20:14 | 48.39781 | 19.81948 | 35012 ft | 488 kts | 144° |
| 2026-04-24 20:15 | 48.34166 | 19.87674 | 35011 ft | 487 kts | 144° |
| 2026-04-24 20:15 | 48.28550 | 19.93386 | 35002 ft | 487 kts | 144° |
| 2026-04-24 20:16 | 48.22931 | 19.99085 | 35005 ft | 486 kts | 144° |
| 2026-04-24 20:16 | 48.17382 | 20.04698 | 35003 ft | 487 kts | 144° |
| 2026-04-24 20:17 | 48.11689 | 20.10441 | 35001 ft | 487 kts | 144° |
| 2026-04-24 20:17 | 48.03289 | 20.18887 | 35001 ft | 487 kts | 144° |
| 2026-04-24 20:18 | 47.97650 | 20.24537 | 35004 ft | 488 kts | 144° |
| 2026-04-24 20:18 | 47.92950 | 20.29235 | 34999 ft | 488 kts | 144° |
| 2026-04-24 20:19 | 47.86373 | 20.35792 | 34999 ft | 488 kts | 144° |
| 2026-04-24 20:19 | 47.80714 | 20.41418 | 34996 ft | 488 kts | 144° |
| 2026-04-24 20:20 | 47.76002 | 20.46090 | 35000 ft | 488 kts | 144° |
| 2026-04-24 20:20 | 47.70348 | 20.51683 | 34994 ft | 488 kts | 144° |
| 2026-04-24 20:21 | 47.64695 | 20.57260 | 35001 ft | 487 kts | 144° |
| 2026-04-24 20:21 | 47.59048 | 20.62817 | 34999 ft | 487 kts | 144° |
| 2026-04-24 20:22 | 47.53398 | 20.68362 | 34997 ft | 486 kts | 144° |
| 2026-04-24 20:22 | 47.47762 | 20.73879 | 34992 ft | 485 kts | 144° |
| 2026-04-24 20:23 | 47.42134 | 20.79374 | 34994 ft | 484 kts | 144° |
| 2026-04-24 20:23 | 47.36551 | 20.84810 | 34994 ft | 483 kts | 144° |
| 2026-04-24 20:24 | 47.30945 | 20.90255 | 34995 ft | 482 kts | 144° |
| 2026-04-24 20:24 | 47.25334 | 20.95691 | 34994 ft | 481 kts | 144° |
| 2026-04-24 20:25 | 47.19741 | 21.01095 | 34990 ft | 481 kts | 144° |
| 2026-04-24 20:25 | 47.14143 | 21.06491 | 34991 ft | 480 kts | 144° |
| 2026-04-24 20:26 | 47.08593 | 21.11827 | 34996 ft | 480 kts | 144° |
| 2026-04-24 20:26 | 47.03000 | 21.17190 | 34992 ft | 479 kts | 144° |
| 2026-04-24 20:27 | 46.97466 | 21.22484 | 34998 ft | 479 kts | 144° |
| 2026-04-24 20:27 | 46.91880 | 21.27814 | 34998 ft | 479 kts | 144° |
| 2026-04-24 20:28 | 46.86291 | 21.33133 | 34997 ft | 479 kts | 144° |
| 2026-04-24 20:28 | 46.80701 | 21.38441 | 34996 ft | 479 kts | 144° |
| 2026-04-24 20:29 | 46.75109 | 21.43738 | 35004 ft | 479 kts | 144° |
| 2026-04-24 20:29 | 46.69515 | 21.49024 | 35001 ft | 479 kts | 144° |
| 2026-04-24 20:30 | 46.64168 | 21.54659 | 35011 ft | 476 kts | 140° |
| 2026-04-24 20:30 | 46.58928 | 21.60568 | 35005 ft | 476 kts | 139° |
| 2026-04-24 20:31 | 46.53694 | 21.66463 | 35008 ft | 476 kts | 139° |
| 2026-04-24 20:31 | 46.48428 | 21.72323 | 35010 ft | 476 kts | 140° |
| 2026-04-24 20:32 | 46.43163 | 21.78139 | 35015 ft | 475 kts | 140° |
| 2026-04-24 20:32 | 46.37889 | 21.83944 | 35021 ft | 475 kts | 140° |
| 2026-04-24 20:33 | 46.32626 | 21.89724 | 35025 ft | 474 kts | 140° |
| 2026-04-24 20:33 | 46.27362 | 21.95493 | 35023 ft | 474 kts | 140° |
| 2026-04-24 20:34 | 46.22095 | 22.01250 | 35030 ft | 474 kts | 140° |
| 2026-04-24 20:34 | 46.16871 | 22.06948 | 35029 ft | 473 kts | 140° |
| 2026-04-24 20:35 | 46.11615 | 22.12666 | 35038 ft | 473 kts | 140° |
| 2026-04-24 20:35 | 46.06356 | 22.18374 | 35036 ft | 472 kts | 140° |
| 2026-04-24 20:36 | 46.01111 | 22.24052 | 35038 ft | 472 kts | 140° |
| 2026-04-24 20:36 | 45.95866 | 22.29716 | 35043 ft | 471 kts | 140° |
| 2026-04-24 20:37 | 45.90651 | 22.35336 | 35043 ft | 471 kts | 140° |
| 2026-04-24 20:37 | 45.85407 | 22.40971 | 35049 ft | 470 kts | 140° |
| 2026-04-24 20:38 | 45.80163 | 22.46595 | 35054 ft | 470 kts | 140° |
| 2026-04-24 20:38 | 45.74920 | 22.52202 | 35055 ft | 470 kts | 140° |
| 2026-04-24 20:39 | 45.69673 | 22.57802 | 35062 ft | 470 kts | 140° |
| 2026-04-24 20:39 | 45.64418 | 22.63395 | 35061 ft | 470 kts | 140° |
| 2026-04-24 20:40 | 45.59205 | 22.68932 | 35065 ft | 470 kts | 140° |
| 2026-04-24 20:40 | 45.53954 | 22.74494 | 35062 ft | 470 kts | 140° |
| 2026-04-24 20:41 | 45.48692 | 22.80056 | 35065 ft | 470 kts | 140° |
| 2026-04-24 20:41 | 45.43428 | 22.85607 | 35058 ft | 471 kts | 141° |
| 2026-04-24 20:42 | 45.38151 | 22.91157 | 35067 ft | 471 kts | 141° |
| 2026-04-24 20:42 | 45.32909 | 22.96658 | 35049 ft | 471 kts | 141° |
| 2026-04-24 20:43 | 45.27630 | 23.02184 | 35052 ft | 470 kts | 141° |
| 2026-04-24 20:43 | 45.22356 | 23.07693 | 35038 ft | 470 kts | 141° |
| 2026-04-24 20:44 | 45.17088 | 23.13182 | 35033 ft | 469 kts | 141° |
| 2026-04-24 20:44 | 45.11822 | 23.18656 | 35024 ft | 469 kts | 141° |
| 2026-04-24 20:45 | 45.06599 | 23.24073 | 35022 ft | 468 kts | 141° |
| 2026-04-24 20:45 | 45.01351 | 23.29503 | 35012 ft | 467 kts | 141° |
| 2026-04-24 20:46 | 44.96096 | 23.34928 | 35008 ft | 466 kts | 141° |
| 2026-04-24 20:46 | 44.90853 | 23.40330 | 34996 ft | 466 kts | 141° |
| 2026-04-24 20:47 | 44.85636 | 23.45690 | 35001 ft | 466 kts | 141° |
| 2026-04-24 20:47 | 44.80392 | 23.51067 | 34994 ft | 466 kts | 141° |
| 2026-04-24 20:48 | 44.75142 | 23.56436 | 34996 ft | 466 kts | 141° |
| 2026-04-24 20:48 | 44.69889 | 23.61798 | 34992 ft | 466 kts | 141° |
| 2026-04-24 20:49 | 44.64629 | 23.67154 | 34982 ft | 467 kts | 141° |
| 2026-04-24 20:49 | 44.59369 | 23.72497 | 34985 ft | 467 kts | 141° |
| 2026-04-24 20:50 | 44.54100 | 23.77837 | 34984 ft | 467 kts | 141° |
| 2026-04-24 20:50 | 44.48864 | 23.83132 | 34987 ft | 467 kts | 141° |
| 2026-04-24 20:51 | 44.43589 | 23.88454 | 34991 ft | 466 kts | 141° |
| 2026-04-24 20:51 | 44.38329 | 23.93749 | 34994 ft | 466 kts | 141° |
| 2026-04-24 20:52 | 44.33061 | 23.99040 | 34999 ft | 466 kts | 141° |
| 2026-04-24 20:52 | 44.27784 | 24.04329 | 34992 ft | 466 kts | 141° |
| 2026-04-24 20:53 | 44.22513 | 24.09599 | 34981 ft | 466 kts | 141° |
| 2026-04-24 20:53 | 44.17274 | 24.14826 | 34972 ft | 465 kts | 141° |
| 2026-04-24 20:54 | 44.12003 | 24.20073 | 34962 ft | 465 kts | 141° |
| 2026-04-24 20:54 | 44.06742 | 24.25297 | 34945 ft | 464 kts | 141° |
| 2026-04-24 20:55 | 44.01492 | 24.30501 | 34942 ft | 463 kts | 142° |
| 2026-04-24 20:55 | 43.96242 | 24.35693 | 34943 ft | 463 kts | 142° |
| 2026-04-24 20:56 | 43.91026 | 24.40839 | 34944 ft | 462 kts | 142° |
| 2026-04-24 20:56 | 43.85784 | 24.46001 | 34939 ft | 461 kts | 142° |
| 2026-04-24 20:57 | 43.80551 | 24.51144 | 34938 ft | 461 kts | 142° |
| 2026-04-24 20:57 | 43.75324 | 24.56282 | 34938 ft | 460 kts | 141° |
| 2026-04-24 20:58 | 43.70280 | 24.61706 | 34940 ft | 459 kts | 138° |
| 2026-04-24 20:58 | 43.65363 | 24.67230 | 34935 ft | 458 kts | 138° |
| 2026-04-24 20:59 | 43.60405 | 24.72770 | 34941 ft | 458 kts | 138° |
| 2026-04-24 20:59 | 43.55428 | 24.78271 | 34944 ft | 458 kts | 139° |
| 2026-04-24 21:00 | 43.50444 | 24.83747 | 34951 ft | 458 kts | 139° |
| 2026-04-24 21:00 | 43.45452 | 24.89216 | 34946 ft | 457 kts | 139° |
| 2026-04-24 21:01 | 43.40471 | 24.94661 | 34962 ft | 457 kts | 139° |
| 2026-04-24 21:01 | 43.35517 | 25.00068 | 34960 ft | 457 kts | 139° |
| 2026-04-24 21:02 | 43.30532 | 25.05497 | 34960 ft | 457 kts | 139° |
| 2026-04-24 21:02 | 43.25543 | 25.10918 | 34977 ft | 457 kts | 139° |
| 2026-04-24 21:03 | 43.21397 | 25.15415 | 34972 ft | 457 kts | 139° |
| 2026-04-24 21:03 | 43.16406 | 25.20817 | 34969 ft | 457 kts | 139° |
| 2026-04-24 21:04 | 43.11419 | 25.26204 | 34976 ft | 456 kts | 139° |
| 2026-04-24 21:04 | 43.06429 | 25.31582 | 34985 ft | 456 kts | 139° |
| 2026-04-24 21:05 | 43.01441 | 25.36946 | 34990 ft | 456 kts | 139° |
| 2026-04-24 21:05 | 42.96477 | 25.42273 | 35003 ft | 455 kts | 139° |
| 2026-04-24 21:06 | 42.91492 | 25.47611 | 34992 ft | 454 kts | 139° |
| 2026-04-24 21:06 | 42.86520 | 25.52925 | 34993 ft | 454 kts | 139° |
| 2026-04-24 21:07 | 42.81544 | 25.58231 | 34997 ft | 453 kts | 139° |
| 2026-04-24 21:07 | 42.76575 | 25.63519 | 35000 ft | 452 kts | 139° |
| 2026-04-24 21:08 | 42.71650 | 25.68750 | 35004 ft | 452 kts | 139° |
| 2026-04-24 21:08 | 42.66681 | 25.74015 | 34994 ft | 452 kts | 139° |
| 2026-04-24 21:09 | 42.61714 | 25.79269 | 34994 ft | 452 kts | 139° |
| 2026-04-24 21:09 | 42.56772 | 25.84485 | 34999 ft | 452 kts | 139° |
| 2026-04-24 21:10 | 42.51797 | 25.89724 | 34989 ft | 453 kts | 139° |
| 2026-04-24 21:10 | 42.46814 | 25.94961 | 34994 ft | 453 kts | 139° |
| 2026-04-24 21:11 | 42.41834 | 26.00185 | 34989 ft | 453 kts | 139° |
| 2026-04-24 21:11 | 42.36843 | 26.05409 | 34992 ft | 453 kts | 139° |
| 2026-04-24 21:12 | 42.31860 | 26.10614 | 34994 ft | 452 kts | 139° |
| 2026-04-24 21:12 | 42.26874 | 26.15811 | 34997 ft | 452 kts | 139° |
| 2026-04-24 21:13 | 42.21926 | 26.20959 | 35000 ft | 451 kts | 139° |
| 2026-04-24 21:13 | 42.16948 | 26.26126 | 34996 ft | 450 kts | 139° |
| 2026-04-24 21:14 | 42.11977 | 26.31276 | 35000 ft | 449 kts | 139° |
| 2026-04-24 21:14 | 42.07022 | 26.36400 | 35004 ft | 448 kts | 139° |
| 2026-04-24 21:15 | 42.02103 | 26.41477 | 35004 ft | 447 kts | 139° |
| 2026-04-24 21:15 | 41.97161 | 26.46566 | 35008 ft | 446 kts | 139° |
| 2026-04-24 21:16 | 41.92232 | 26.51635 | 35010 ft | 445 kts | 139° |
| 2026-04-24 21:16 | 41.87339 | 26.56655 | 35014 ft | 444 kts | 139° |
| 2026-04-24 21:17 | 41.82326 | 26.61530 | 35012 ft | 445 kts | 142° |
| 2026-04-24 21:17 | 41.77249 | 26.66262 | 35012 ft | 444 kts | 142° |
| 2026-04-24 21:18 | 41.72189 | 26.70998 | 35012 ft | 444 kts | 142° |
| 2026-04-24 21:18 | 41.67130 | 26.75760 | 35017 ft | 444 kts | 141° |
| 2026-04-24 21:19 | 41.62073 | 26.80520 | 35016 ft | 444 kts | 141° |
| 2026-04-24 21:19 | 41.57014 | 26.85272 | 35023 ft | 444 kts | 142° |
| 2026-04-24 21:20 | 41.49572 | 26.92245 | 35019 ft | 445 kts | 142° |
| 2026-04-24 21:21 | 41.44504 | 26.96980 | 35026 ft | 445 kts | 142° |
| 2026-04-24 21:21 | 41.39427 | 27.01704 | 35023 ft | 445 kts | 142° |
| 2026-04-24 21:22 | 41.34348 | 27.06422 | 35024 ft | 445 kts | 142° |
| 2026-04-24 21:22 | 41.29277 | 27.11128 | 35028 ft | 444 kts | 142° |
| 2026-04-24 21:23 | 41.24209 | 27.15823 | 35027 ft | 444 kts | 142° |
| 2026-04-24 21:23 | 41.19132 | 27.20514 | 35031 ft | 443 kts | 142° |
| 2026-04-24 21:24 | 41.14069 | 27.25180 | 35026 ft | 442 kts | 142° |
| 2026-04-24 21:24 | 41.09009 | 27.29837 | 35026 ft | 442 kts | 142° |
| 2026-04-24 21:25 | 41.03993 | 27.34446 | 35038 ft | 441 kts | 142° |
| 2026-04-24 21:25 | 40.98951 | 27.39072 | 35030 ft | 441 kts | 142° |
| 2026-04-24 21:26 | 40.93763 | 27.43425 | 35013 ft | 444 kts | 153° |
| 2026-04-24 21:26 | 40.88015 | 27.46483 | 35024 ft | 445 kts | 156° |
| 2026-04-24 21:27 | 40.82242 | 27.49425 | 35030 ft | 445 kts | 156° |
| 2026-04-24 21:27 | 40.76479 | 27.52422 | 35028 ft | 444 kts | 155° |
| 2026-04-24 21:28 | 40.70733 | 27.55444 | 35026 ft | 444 kts | 155° |
| 2026-04-24 21:28 | 40.64988 | 27.58464 | 35026 ft | 444 kts | 155° |
| 2026-04-24 21:29 | 40.59245 | 27.61475 | 35025 ft | 444 kts | 155° |
| 2026-04-24 21:29 | 40.53532 | 27.64464 | 35023 ft | 444 kts | 155° |
| 2026-04-24 21:30 | 40.47785 | 27.67484 | 35024 ft | 444 kts | 155° |
| 2026-04-24 21:30 | 40.42055 | 27.70510 | 35025 ft | 443 kts | 155° |
| 2026-04-24 21:31 | 40.36330 | 27.73530 | 35021 ft | 443 kts | 155° |
| 2026-04-24 21:31 | 40.30629 | 27.76529 | 35027 ft | 443 kts | 155° |
| 2026-04-24 21:32 | 40.24893 | 27.79539 | 35026 ft | 443 kts | 156° |
| 2026-04-24 21:32 | 40.19178 | 27.82533 | 35029 ft | 442 kts | 156° |
| 2026-04-24 21:33 | 40.13462 | 27.85521 | 35025 ft | 442 kts | 156° |
| 2026-04-24 21:33 | 40.07762 | 27.88497 | 35025 ft | 441 kts | 156° |
| 2026-04-24 21:34 | 40.02059 | 27.91469 | 35022 ft | 440 kts | 156° |
| 2026-04-24 21:34 | 39.96401 | 27.94412 | 35031 ft | 440 kts | 156° |
| 2026-04-24 21:35 | 39.90714 | 27.97366 | 35036 ft | 440 kts | 156° |
| 2026-04-24 21:35 | 39.85029 | 28.00302 | 35040 ft | 440 kts | 156° |
| 2026-04-24 21:36 | 39.79308 | 28.03159 | 35044 ft | 440 kts | 157° |
| 2026-04-24 21:36 | 39.73800 | 28.06552 | 35054 ft | 436 kts | 147° |
| 2026-04-24 21:37 | 39.68621 | 28.10687 | 35044 ft | 437 kts | 146° |
| 2026-04-24 21:37 | 39.63444 | 28.14856 | 35049 ft | 437 kts | 147° |
| 2026-04-24 21:38 | 39.58284 | 28.18961 | 35044 ft | 438 kts | 147° |
| 2026-04-24 21:38 | 39.53069 | 28.23073 | 35042 ft | 439 kts | 148° |
| 2026-04-24 21:39 | 39.47848 | 28.27172 | 35044 ft | 439 kts | 148° |
| 2026-04-24 21:39 | 39.42616 | 28.31273 | 35040 ft | 440 kts | 148° |
| 2026-04-24 21:40 | 39.37408 | 28.35348 | 35044 ft | 440 kts | 148° |
| 2026-04-24 21:40 | 39.32165 | 28.39444 | 35044 ft | 441 kts | 148° |
| 2026-04-24 21:41 | 39.26907 | 28.43544 | 35043 ft | 441 kts | 148° |
| 2026-04-24 21:41 | 39.21632 | 28.47651 | 35042 ft | 442 kts | 149° |
| 2026-04-24 21:42 | 39.16359 | 28.51748 | 35040 ft | 442 kts | 149° |
| 2026-04-24 21:42 | 39.11073 | 28.55849 | 35042 ft | 443 kts | 149° |
| 2026-04-24 21:43 | 39.05819 | 28.59916 | 35039 ft | 443 kts | 149° |
| 2026-04-24 21:43 | 39.00520 | 28.64012 | 35033 ft | 444 kts | 150° |
| 2026-04-24 21:44 | 38.95224 | 28.68098 | 35033 ft | 444 kts | 150° |
| 2026-04-24 21:44 | 38.89919 | 28.72185 | 35036 ft | 444 kts | 150° |
| 2026-04-24 21:45 | 38.84644 | 28.76241 | 35029 ft | 444 kts | 151° |
| 2026-04-24 21:45 | 38.79340 | 28.80312 | 35027 ft | 444 kts | 151° |
| 2026-04-24 21:46 | 38.74041 | 28.84372 | 35025 ft | 443 kts | 151° |
| 2026-04-24 21:46 | 38.69639 | 28.87739 | 35023 ft | 443 kts | 151° |
| 2026-04-24 21:47 | 38.64344 | 28.91783 | 35025 ft | 443 kts | 152° |
| 2026-04-24 21:47 | 38.59037 | 28.95829 | 35019 ft | 443 kts | 152° |
| 2026-04-24 21:48 | 38.53740 | 28.99861 | 35021 ft | 442 kts | 152° |
| 2026-04-24 21:48 | 38.48456 | 29.03876 | 35018 ft | 442 kts | 152° |
| 2026-04-24 21:49 | 38.43161 | 29.07892 | 35011 ft | 442 kts | 152° |
| 2026-04-24 21:49 | 38.37901 | 29.11875 | 35015 ft | 441 kts | 153° |
| 2026-04-24 21:50 | 38.32617 | 29.15869 | 35013 ft | 441 kts | 153° |
| 2026-04-24 21:50 | 38.27337 | 29.19853 | 35006 ft | 441 kts | 153° |
| 2026-04-24 21:51 | 38.22047 | 29.23838 | 35004 ft | 441 kts | 153° |
| 2026-04-24 21:51 | 38.16771 | 29.27805 | 34992 ft | 441 kts | 154° |
| 2026-04-24 21:52 | 38.11497 | 29.31764 | 34997 ft | 440 kts | 154° |
| 2026-04-24 21:52 | 38.06242 | 29.35703 | 34987 ft | 440 kts | 154° |
| 2026-04-24 21:53 | 38.00962 | 29.39654 | 34985 ft | 439 kts | 155° |
| 2026-04-24 21:53 | 37.95704 | 29.43581 | 34988 ft | 438 kts | 155° |
| 2026-04-24 21:54 | 37.90443 | 29.47504 | 34989 ft | 438 kts | 155° |
| 2026-04-24 21:54 | 37.85178 | 29.51422 | 34994 ft | 439 kts | 155° |
| 2026-04-24 21:55 | 37.79907 | 29.55339 | 34993 ft | 439 kts | 155° |
| 2026-04-24 21:55 | 37.74656 | 29.59234 | 34993 ft | 440 kts | 155° |
| 2026-04-24 21:56 | 37.69364 | 29.63154 | 35009 ft | 441 kts | 155° |
| 2026-04-24 21:56 | 37.64052 | 29.67082 | 35002 ft | 443 kts | 155° |
| 2026-04-24 21:57 | 37.58733 | 29.71009 | 35001 ft | 443 kts | 155° |
| 2026-04-24 21:57 | 37.53420 | 29.74924 | 34971 ft | 444 kts | 155° |
| 2026-04-24 21:58 | 37.48081 | 29.78853 | 34976 ft | 444 kts | 155° |
| 2026-04-24 21:58 | 37.42747 | 29.82772 | 34977 ft | 443 kts | 155° |
| 2026-04-24 21:59 | 37.37431 | 29.86671 | 34982 ft | 441 kts | 155° |
| 2026-04-24 21:59 | 37.32132 | 29.90551 | 34975 ft | 439 kts | 155° |
| 2026-04-24 22:00 | 37.26860 | 29.94405 | 34978 ft | 437 kts | 155° |
| 2026-04-24 22:00 | 37.21620 | 29.98229 | 34964 ft | 434 kts | 155° |
| 2026-04-24 22:01 | 37.16448 | 30.01997 | 34971 ft | 431 kts | 156° |
| 2026-04-24 22:01 | 37.11267 | 30.05765 | 34984 ft | 429 kts | 156° |
| 2026-04-24 22:02 | 37.06095 | 30.09520 | 34977 ft | 429 kts | 156° |
| 2026-04-24 22:02 | 37.00940 | 30.13257 | 34994 ft | 428 kts | 156° |
| 2026-04-24 22:03 | 36.95783 | 30.16990 | 34987 ft | 428 kts | 156° |
| 2026-04-24 22:03 | 36.90628 | 30.20715 | 34978 ft | 428 kts | 156° |
| 2026-04-24 22:04 | 36.85469 | 30.24437 | 34987 ft | 429 kts | 156° |
| 2026-04-24 22:04 | 36.80315 | 30.28150 | 34973 ft | 429 kts | 156° |
| 2026-04-24 22:05 | 36.75136 | 30.31875 | 34967 ft | 429 kts | 157° |
| 2026-04-24 22:05 | 36.69950 | 30.35600 | 34967 ft | 431 kts | 157° |
| 2026-04-24 22:06 | 36.64743 | 30.39334 | 34959 ft | 432 kts | 157° |
| 2026-04-24 22:06 | 36.59521 | 30.43073 | 34966 ft | 432 kts | 157° |
| 2026-04-24 22:07 | 36.54309 | 30.46799 | 34962 ft | 432 kts | 157° |
| 2026-04-24 22:07 | 36.49078 | 30.50534 | 34958 ft | 434 kts | 157° |
| 2026-04-24 22:08 | 36.43869 | 30.54245 | 34954 ft | 434 kts | 157° |
| 2026-04-24 22:08 | 36.38632 | 30.57971 | 34955 ft | 434 kts | 157° |
| 2026-04-24 22:09 | 36.33396 | 30.61690 | 34952 ft | 433 kts | 157° |
| 2026-04-24 22:09 | 36.28147 | 30.65414 | 34960 ft | 433 kts | 157° |
| 2026-04-24 22:10 | 36.22947 | 30.69097 | 34956 ft | 433 kts | 157° |
| 2026-04-24 22:10 | 36.17705 | 30.72804 | 34955 ft | 433 kts | 157° |
| 2026-04-24 22:11 | 36.12466 | 30.76504 | 34955 ft | 433 kts | 157° |
| 2026-04-24 22:11 | 36.07255 | 30.80165 | 34957 ft | 431 kts | 160° |
| 2026-04-24 22:12 | 36.01698 | 30.82492 | 34958 ft | 415 kts | 177° |
| 2026-04-24 22:12 | 35.96013 | 30.82984 | 34957 ft | 409 kts | 184° |
| 2026-04-24 22:13 | 35.90312 | 30.83272 | 34957 ft | 410 kts | 183° |
| 2026-04-24 22:13 | 35.84602 | 30.83598 | 34953 ft | 411 kts | 183° |
| 2026-04-24 22:14 | 35.78918 | 30.83944 | 34955 ft | 412 kts | 183° |
| 2026-04-24 22:14 | 35.73181 | 30.84297 | 34958 ft | 413 kts | 183° |
| 2026-04-24 22:15 | 35.67442 | 30.84649 | 34947 ft | 413 kts | 183° |
| 2026-04-24 22:15 | 35.61685 | 30.85001 | 34952 ft | 414 kts | 183° |
| 2026-04-24 22:16 | 35.55938 | 30.85238 | 34953 ft | 413 kts | 184° |
| 2026-04-24 22:16 | 35.50190 | 30.85410 | 34949 ft | 413 kts | 184° |
| 2026-04-24 22:17 | 35.44444 | 30.85593 | 34950 ft | 413 kts | 184° |
| 2026-04-24 22:17 | 35.38731 | 30.85786 | 34951 ft | 413 kts | 184° |
| 2026-04-24 22:18 | 35.32978 | 30.85983 | 34951 ft | 413 kts | 184° |
| 2026-04-24 22:18 | 35.27225 | 30.86179 | 34952 ft | 413 kts | 184° |
| 2026-04-24 22:19 | 35.21465 | 30.86375 | 34949 ft | 413 kts | 184° |
| 2026-04-24 22:19 | 35.15707 | 30.86570 | 34944 ft | 414 kts | 184° |
| 2026-04-24 22:20 | 35.09945 | 30.86755 | 34950 ft | 414 kts | 184° |
| 2026-04-24 22:20 | 35.04204 | 30.86939 | 34944 ft | 414 kts | 185° |
| 2026-04-24 22:21 | 34.98437 | 30.87124 | 34947 ft | 414 kts | 185° |
| 2026-04-24 22:21 | 34.92665 | 30.87309 | 34943 ft | 415 kts | 185° |
| 2026-04-24 22:22 | 34.86925 | 30.87493 | 34945 ft | 415 kts | 185° |
| 2026-04-24 22:22 | 34.81141 | 30.87679 | 34946 ft | 415 kts | 185° |
| 2026-04-24 22:23 | 34.75358 | 30.87864 | 34941 ft | 416 kts | 185° |
| 2026-04-24 22:23 | 34.69567 | 30.88049 | 34946 ft | 416 kts | 185° |
| 2026-04-24 22:24 | 34.63781 | 30.88234 | 34941 ft | 416 kts | 185° |
| 2026-04-24 22:24 | 34.57985 | 30.88459 | 34940 ft | 417 kts | 184° |
| 2026-04-24 22:25 | 34.52207 | 30.88767 | 34937 ft | 418 kts | 184° |
| 2026-04-24 22:25 | 34.46386 | 30.89077 | 34938 ft | 418 kts | 184° |
| 2026-04-24 22:26 | 34.40572 | 30.89376 | 34934 ft | 418 kts | 184° |
| 2026-04-24 22:26 | 34.34756 | 30.89671 | 34934 ft | 418 kts | 184° |
| 2026-04-24 22:27 | 34.28940 | 30.89965 | 34936 ft | 418 kts | 184° |
| 2026-04-24 22:27 | 34.23119 | 30.90261 | 34934 ft | 419 kts | 184° |
| 2026-04-24 22:28 | 34.17324 | 30.90580 | 34933 ft | 419 kts | 184° |
| 2026-04-24 22:28 | 34.11496 | 30.90906 | 34928 ft | 419 kts | 184° |
| 2026-04-24 22:29 | 34.02740 | 30.91390 | 34922 ft | 419 kts | 184° |
| 2026-04-24 22:29 | 33.97891 | 30.91657 | 34933 ft | 420 kts | 184° |
| 2026-04-24 22:30 | 33.92051 | 30.91951 | 34935 ft | 420 kts | 185° |
| 2026-04-24 22:30 | 33.86210 | 30.92164 | 34931 ft | 420 kts | 185° |
| 2026-04-24 22:31 | 33.80354 | 30.92371 | 34937 ft | 420 kts | 185° |
| 2026-04-24 22:31 | 33.74499 | 30.92586 | 34930 ft | 421 kts | 185° |
| 2026-04-24 22:32 | 33.68671 | 30.92804 | 34928 ft | 422 kts | 185° |
| 2026-04-24 22:32 | 33.62801 | 30.93026 | 34925 ft | 422 kts | 185° |
| 2026-04-24 22:33 | 33.56930 | 30.93247 | 34925 ft | 422 kts | 185° |
| 2026-04-24 22:33 | 33.51050 | 30.93468 | 34923 ft | 422 kts | 185° |
| 2026-04-24 22:34 | 33.45168 | 30.93688 | 34925 ft | 422 kts | 185° |
| 2026-04-24 22:34 | 33.39292 | 30.93908 | 34919 ft | 421 kts | 185° |
| 2026-04-24 22:35 | 33.33464 | 30.94126 | 34921 ft | 421 kts | 185° |
| 2026-04-24 22:35 | 33.27608 | 30.94345 | 34916 ft | 420 kts | 185° |
| 2026-04-24 22:36 | 33.21767 | 30.94562 | 34918 ft | 419 kts | 184° |
| 2026-04-24 22:36 | 33.15922 | 30.94780 | 34917 ft | 419 kts | 184° |
| 2026-04-24 22:37 | 33.10098 | 30.95000 | 34919 ft | 419 kts | 184° |
| 2026-04-24 22:37 | 33.04293 | 30.95532 | 34914 ft | 422 kts | 181° |
| 2026-04-24 22:38 | 32.98448 | 30.96238 | 34914 ft | 422 kts | 180° |
| 2026-04-24 22:38 | 32.92586 | 30.96933 | 34917 ft | 422 kts | 181° |
| 2026-04-24 22:39 | 32.86726 | 30.97599 | 34916 ft | 423 kts | 181° |
| 2026-04-24 22:39 | 32.80864 | 30.98253 | 34914 ft | 423 kts | 181° |
| 2026-04-24 22:40 | 32.74991 | 30.98905 | 34915 ft | 424 kts | 181° |
| 2026-04-24 22:40 | 32.69143 | 30.99554 | 34915 ft | 425 kts | 181° |
| 2026-04-24 22:41 | 32.63251 | 31.00208 | 34917 ft | 426 kts | 181° |
| 2026-04-24 22:41 | 32.57341 | 31.00862 | 34913 ft | 427 kts | 181° |
| 2026-04-24 22:42 | 32.51425 | 31.01517 | 34916 ft | 427 kts | 181° |
| 2026-04-24 22:42 | 32.45518 | 31.02170 | 34916 ft | 428 kts | 181° |
| 2026-04-24 22:43 | 32.39588 | 31.02824 | 34915 ft | 428 kts | 181° |
| 2026-04-24 22:43 | 32.33657 | 31.03478 | 34909 ft | 429 kts | 181° |
| 2026-04-24 22:44 | 32.27712 | 31.04132 | 34909 ft | 429 kts | 181° |
| 2026-04-24 22:44 | 32.21766 | 31.04786 | 34905 ft | 429 kts | 181° |
| 2026-04-24 22:45 | 32.15825 | 31.05438 | 34910 ft | 429 kts | 181° |
| 2026-04-24 22:45 | 32.09879 | 31.06090 | 34908 ft | 428 kts | 181° |
| 2026-04-24 22:46 | 32.03966 | 31.06738 | 34907 ft | 428 kts | 181° |
| 2026-04-24 22:46 | 31.98028 | 31.07387 | 34905 ft | 428 kts | 181° |
| 2026-04-24 22:47 | 31.92086 | 31.08037 | 34907 ft | 428 kts | 181° |
| 2026-04-24 22:47 | 31.86150 | 31.08685 | 34906 ft | 428 kts | 181° |
| 2026-04-24 22:48 | 31.80220 | 31.09331 | 34904 ft | 428 kts | 181° |
| 2026-04-24 22:48 | 31.74285 | 31.09977 | 34906 ft | 428 kts | 181° |
| 2026-04-24 22:49 | 31.68381 | 31.10619 | 34905 ft | 428 kts | 181° |
| 2026-04-24 22:49 | 31.62440 | 31.11265 | 34906 ft | 428 kts | 181° |
| 2026-04-24 22:50 | 31.56485 | 31.11911 | 34901 ft | 429 kts | 181° |
| 2026-04-24 22:50 | 31.50572 | 31.12645 | 34899 ft | 431 kts | 178° |
| 2026-04-24 22:51 | 31.44627 | 31.13759 | 34907 ft | 433 kts | 176° |
| 2026-04-24 22:51 | 31.38676 | 31.14911 | 34904 ft | 433 kts | 177° |
| 2026-04-24 22:52 | 31.32715 | 31.16020 | 34903 ft | 433 kts | 177° |
| 2026-04-24 22:52 | 31.26756 | 31.17112 | 34908 ft | 434 kts | 177° |
| 2026-04-24 22:53 | 31.20779 | 31.18214 | 34903 ft | 434 kts | 177° |
| 2026-04-24 22:53 | 31.14806 | 31.19333 | 34905 ft | 434 kts | 177° |
| 2026-04-24 22:54 | 31.08871 | 31.20445 | 34902 ft | 435 kts | 177° |
| 2026-04-24 22:54 | 31.02893 | 31.21562 | 34905 ft | 435 kts | 177° |
| 2026-04-24 22:55 | 30.96911 | 31.22677 | 34902 ft | 435 kts | 177° |
| 2026-04-24 22:55 | 30.90928 | 31.23791 | 34904 ft | 435 kts | 177° |
| 2026-04-24 22:56 | 30.84949 | 31.24902 | 34899 ft | 435 kts | 177° |
| 2026-04-24 22:56 | 30.78971 | 31.26012 | 34901 ft | 434 kts | 177° |
| 2026-04-24 22:57 | 30.73031 | 31.27114 | 34904 ft | 434 kts | 177° |
| 2026-04-24 22:57 | 30.67051 | 31.28222 | 34903 ft | 434 kts | 177° |
| 2026-04-24 22:58 | 30.61077 | 31.29327 | 34903 ft | 434 kts | 177° |
| 2026-04-24 22:58 | 30.55102 | 31.30431 | 34901 ft | 434 kts | 177° |
| 2026-04-24 22:59 | 30.49166 | 31.31526 | 34906 ft | 434 kts | 177° |
| 2026-04-24 23:00 | 30.40198 | 31.33169 | 34904 ft | 434 kts | 178° |
| 2026-04-24 23:00 | 30.34219 | 31.34256 | 34897 ft | 434 kts | 178° |
| 2026-04-24 23:01 | 30.28250 | 31.35341 | 34904 ft | 434 kts | 178° |
| 2026-04-24 23:01 | 30.22270 | 31.36429 | 34904 ft | 434 kts | 178° |
| 2026-04-24 23:02 | 30.16339 | 31.37505 | 34899 ft | 434 kts | 178° |
| 2026-04-24 23:02 | 30.10385 | 31.38919 | 34894 ft | 443 kts | 166° |
| 2026-04-24 23:03 | 30.04861 | 31.42302 | 34903 ft | 457 kts | 150° |
| 2026-04-24 23:03 | 29.99757 | 31.46705 | 34893 ft | 458 kts | 148° |
| 2026-04-24 23:04 | 29.94710 | 31.51124 | 34896 ft | 458 kts | 149° |
| 2026-04-24 23:04 | 29.89608 | 31.55526 | 34886 ft | 458 kts | 149° |
| 2026-04-24 23:05 | 29.84492 | 31.59893 | 34890 ft | 457 kts | 149° |
| 2026-04-24 23:05 | 29.79370 | 31.64247 | 34897 ft | 457 kts | 149° |
| 2026-04-24 23:06 | 29.74251 | 31.68593 | 34898 ft | 457 kts | 149° |
| 2026-04-24 23:06 | 29.69131 | 31.72936 | 34893 ft | 457 kts | 149° |
| 2026-04-24 23:07 | 29.64052 | 31.77239 | 34889 ft | 456 kts | 149° |
| 2026-04-24 23:07 | 29.58941 | 31.81564 | 34890 ft | 455 kts | 149° |
| 2026-04-24 23:08 | 29.53839 | 31.85876 | 34890 ft | 455 kts | 149° |
| 2026-04-24 23:08 | 29.48737 | 31.90182 | 34895 ft | 454 kts | 149° |
| 2026-04-24 23:09 | 29.43638 | 31.94479 | 34890 ft | 454 kts | 150° |
| 2026-04-24 23:09 | 29.38645 | 31.98683 | 34887 ft | 454 kts | 150° |
| 2026-04-24 23:10 | 29.33545 | 32.02972 | 34893 ft | 454 kts | 150° |
| 2026-04-24 23:10 | 29.28458 | 32.07244 | 34889 ft | 454 kts | 150° |
| 2026-04-24 23:11 | 29.23356 | 32.11522 | 34882 ft | 453 kts | 150° |
| 2026-04-24 23:11 | 29.18291 | 32.15765 | 34887 ft | 453 kts | 150° |
| 2026-04-24 23:12 | 29.13201 | 32.20023 | 34878 ft | 453 kts | 150° |
| 2026-04-24 23:12 | 29.08103 | 32.24283 | 34878 ft | 452 kts | 150° |
| 2026-04-24 23:13 | 29.03872 | 32.27814 | 34876 ft | 452 kts | 150° |
| 2026-04-24 23:13 | 28.97957 | 32.32745 | 34876 ft | 452 kts | 150° |
| 2026-04-24 23:14 | 28.93698 | 32.36290 | 34873 ft | 452 kts | 150° |
| 2026-04-24 23:14 | 28.88652 | 32.40486 | 34887 ft | 452 kts | 150° |
| 2026-04-24 23:15 | 28.83571 | 32.44706 | 34867 ft | 452 kts | 151° |
| 2026-04-24 23:15 | 28.78454 | 32.48953 | 34857 ft | 445 kts | 151° |
| 2026-04-24 23:15 | 28.75986 | 32.51007 | 34858 ft | 434 kts | 151° |
| 2026-04-24 23:16 | 28.73558 | 32.53023 | 34861 ft | 431 kts | 151° |
| 2026-04-24 23:16 | 28.68706 | 32.57031 | 34642 ft | 432 kts | 151° |
| 2026-04-24 23:16 | 28.66281 | 32.59033 | 34349 ft | 428 kts | 151° |
| 2026-04-24 23:17 | 28.63915 | 32.60989 | 33977 ft | 424 kts | 151° |
| 2026-04-24 23:17 | 28.61530 | 32.62959 | 33587 ft | 421 kts | 151° |
| 2026-04-24 23:17 | 28.59158 | 32.64917 | 33178 ft | 418 kts | 151° |
| 2026-04-24 23:17 | 28.56815 | 32.66851 | 32793 ft | 415 kts | 151° |
| 2026-04-24 23:18 | 28.54483 | 32.68774 | 32415 ft | 412 kts | 151° |
| 2026-04-24 23:18 | 28.52171 | 32.70679 | 32045 ft | 409 kts | 151° |
| 2026-04-24 23:18 | 28.49876 | 32.72569 | 31684 ft | 406 kts | 151° |
| 2026-04-24 23:18 | 28.47595 | 32.74446 | 31321 ft | 403 kts | 150° |
| 2026-04-24 23:19 | 28.45332 | 32.76307 | 30967 ft | 401 kts | 151° |
| 2026-04-24 23:19 | 28.43077 | 32.78161 | 30614 ft | 398 kts | 150° |
| 2026-04-24 23:19 | 28.40837 | 32.80001 | 30254 ft | 396 kts | 151° |
| 2026-04-24 23:19 | 28.38603 | 32.81836 | 29895 ft | 394 kts | 150° |
| 2026-04-24 23:20 | 28.36413 | 32.83633 | 29494 ft | 392 kts | 150° |
| 2026-04-24 23:20 | 28.34209 | 32.85441 | 29102 ft | 389 kts | 150° |
| 2026-04-24 23:20 | 28.32020 | 32.87237 | 28721 ft | 386 kts | 150° |
| 2026-04-24 23:20 | 28.29856 | 32.89012 | 28360 ft | 383 kts | 150° |
| 2026-04-24 23:21 | 28.27701 | 32.90777 | 27981 ft | 380 kts | 150° |
| 2026-04-24 23:21 | 28.25564 | 32.92526 | 27642 ft | 377 kts | 150° |
| 2026-04-24 23:21 | 28.23445 | 32.94260 | 27285 ft | 374 kts | 150° |
| 2026-04-24 23:21 | 28.21339 | 32.95983 | 26932 ft | 372 kts | 150° |
| 2026-04-24 23:22 | 28.19248 | 32.97692 | 26582 ft | 369 kts | 150° |
| 2026-04-24 23:22 | 28.17172 | 32.99389 | 26236 ft | 367 kts | 150° |
| 2026-04-24 23:22 | 28.15106 | 33.01076 | 25892 ft | 365 kts | 150° |
| 2026-04-24 23:22 | 28.13077 | 33.02732 | 25551 ft | 363 kts | 150° |
| 2026-04-24 23:23 | 28.11032 | 33.04400 | 25210 ft | 361 kts | 150° |
| 2026-04-24 23:23 | 28.08995 | 33.06062 | 24853 ft | 360 kts | 149° |
| 2026-04-24 23:23 | 28.06971 | 33.07713 | 24530 ft | 358 kts | 149° |
| 2026-04-24 23:23 | 28.04946 | 33.09362 | 24190 ft | 357 kts | 149° |
| 2026-04-24 23:24 | 28.02932 | 33.11002 | 23846 ft | 356 kts | 149° |
| 2026-04-24 23:24 | 28.00925 | 33.12635 | 23498 ft | 355 kts | 149° |
| 2026-04-24 23:24 | 27.98915 | 33.14269 | 23105 ft | 354 kts | 149° |
| 2026-04-24 23:24 | 27.96912 | 33.15897 | 22735 ft | 353 kts | 149° |
| 2026-04-24 23:25 | 27.94926 | 33.17510 | 22383 ft | 351 kts | 149° |
| 2026-04-24 23:25 | 27.92949 | 33.19116 | 22033 ft | 349 kts | 148° |
| 2026-04-24 23:25 | 27.90985 | 33.20711 | 21692 ft | 347 kts | 148° |
| 2026-04-24 23:25 | 27.89033 | 33.22295 | 21351 ft | 345 kts | 148° |
| 2026-04-24 23:26 | 27.87092 | 33.23870 | 21027 ft | 343 kts | 148° |
| 2026-04-24 23:26 | 27.85157 | 33.25439 | 20696 ft | 341 kts | 148° |
| 2026-04-24 23:26 | 27.83262 | 33.26975 | 20357 ft | 337 kts | 148° |
| 2026-04-24 23:26 | 27.81381 | 33.28500 | 20028 ft | 329 kts | 148° |
| 2026-04-24 23:27 | 27.79540 | 33.29993 | 19712 ft | 322 kts | 148° |
| 2026-04-24 23:27 | 27.77740 | 33.31451 | 19399 ft | 315 kts | 148° |
| 2026-04-24 23:27 | 27.75973 | 33.32881 | 19106 ft | 311 kts | 148° |
| 2026-04-24 23:27 | 27.74225 | 33.34294 | 18806 ft | 308 kts | 148° |
| 2026-04-24 23:28 | 27.72465 | 33.35714 | 18526 ft | 314 kts | 148° |
| 2026-04-24 23:28 | 27.70640 | 33.37183 | 18207 ft | 329 kts | 147° |
| 2026-04-24 23:28 | 27.68776 | 33.38688 | 17826 ft | 328 kts | 147° |
| 2026-04-24 23:28 | 27.66946 | 33.40168 | 17475 ft | 320 kts | 147° |
| 2026-04-24 23:29 | 27.65160 | 33.41613 | 17140 ft | 312 kts | 147° |
| 2026-04-24 23:29 | 27.63420 | 33.43019 | 16837 ft | 304 kts | 147° |
| 2026-04-24 23:29 | 27.61742 | 33.44373 | 16541 ft | 299 kts | 147° |
| 2026-04-24 23:29 | 27.60058 | 33.45730 | 16261 ft | 295 kts | 147° |
| 2026-04-24 23:30 | 27.58382 | 33.47080 | 15987 ft | 298 kts | 147° |
| 2026-04-24 23:30 | 27.56653 | 33.48470 | 15723 ft | 312 kts | 147° |
| 2026-04-24 23:30 | 27.54868 | 33.49906 | 15398 ft | 315 kts | 147° |
| 2026-04-24 23:30 | 27.53100 | 33.51331 | 15064 ft | 309 kts | 147° |
| 2026-04-24 23:31 | 27.51348 | 33.52674 | 14747 ft | 299 kts | 154° |
| 2026-04-24 23:31 | 27.49503 | 33.53672 | 14457 ft | 290 kts | 160° |
| 2026-04-24 23:31 | 27.47657 | 33.54529 | 14181 ft | 284 kts | 161° |
| 2026-04-24 23:31 | 27.45829 | 33.55365 | 13905 ft | 283 kts | 160° |
| 2026-04-24 23:32 | 27.44007 | 33.56213 | 13624 ft | 285 kts | 160° |
| 2026-04-24 23:32 | 27.42170 | 33.57084 | 13330 ft | 296 kts | 159° |
| 2026-04-24 23:32 | 27.40258 | 33.58004 | 13013 ft | 299 kts | 159° |
| 2026-04-24 23:32 | 27.38358 | 33.58926 | 12676 ft | 293 kts | 159° |
| 2026-04-24 23:33 | 27.36506 | 33.59827 | 12366 ft | 285 kts | 159° |
| 2026-04-24 23:33 | 27.34684 | 33.60643 | 12064 ft | 276 kts | 165° |
| 2026-04-24 23:33 | 27.32858 | 33.61213 | 11807 ft | 270 kts | 168° |
| 2026-04-24 23:33 | 27.31041 | 33.61719 | 11542 ft | 268 kts | 168° |
| 2026-04-24 23:34 | 27.29229 | 33.62223 | 11282 ft | 270 kts | 168° |
| 2026-04-24 23:34 | 27.27385 | 33.62746 | 11030 ft | 282 kts | 167° |
| 2026-04-24 23:34 | 27.25462 | 33.63304 | 10727 ft | 286 kts | 167° |
| 2026-04-24 23:34 | 27.23558 | 33.63866 | 10405 ft | 280 kts | 167° |
| 2026-04-24 23:35 | 27.21696 | 33.64418 | 10120 ft | 272 kts | 167° |
| 2026-04-24 23:35 | 27.19889 | 33.64955 | 9939 ft | 261 kts | 167° |
| 2026-04-24 23:35 | 27.18166 | 33.65466 | 9790 ft | 253 kts | 167° |
| 2026-04-24 23:35 | 27.16475 | 33.65968 | 9638 ft | 250 kts | 167° |
| 2026-04-24 23:36 | 27.14754 | 33.66477 | 9389 ft | 263 kts | 167° |
| 2026-04-24 23:36 | 27.12937 | 33.67014 | 9130 ft | 274 kts | 167° |
| 2026-04-24 23:36 | 27.11082 | 33.67563 | 8790 ft | 277 kts | 166° |
| 2026-04-24 23:36 | 27.09221 | 33.68115 | 8475 ft | 276 kts | 166° |
| 2026-04-24 23:37 | 27.07364 | 33.68665 | 8176 ft | 276 kts | 166° |
| 2026-04-24 23:37 | 27.05536 | 33.69207 | 7893 ft | 275 kts | 167° |
| 2026-04-24 23:37 | 27.01850 | 33.70298 | 7316 ft | 273 kts | 167° |
| 2026-04-24 23:38 | 27.00018 | 33.70840 | 7032 ft | 272 kts | 167° |
| 2026-04-24 23:38 | 26.98186 | 33.71382 | 6765 ft | 271 kts | 167° |
| 2026-04-24 23:38 | 26.96355 | 33.71923 | 6469 ft | 271 kts | 167° |
| 2026-04-24 23:38 | 26.94655 | 33.72799 | 6254 ft | 268 kts | 142° |
| 2026-04-24 23:39 | 26.93532 | 33.74404 | 6113 ft | 260 kts | 115° |
| 2026-04-24 23:39 | 26.93170 | 33.76347 | 5726 ft | 260 kts | 88° |
| 2026-04-24 23:39 | 26.93565 | 33.78301 | 5372 ft | 257 kts | 64° |
| 2026-04-24 23:39 | 26.94507 | 33.79982 | 5019 ft | 254 kts | 54° |
| 2026-04-24 23:40 | 26.95526 | 33.81594 | 4640 ft | 252 kts | 53° |
| 2026-04-24 23:40 | 26.96553 | 33.83182 | 4256 ft | 250 kts | 47° |
| 2026-04-24 23:40 | 26.97954 | 33.84276 | 3864 ft | 244 kts | 16° |
| 2026-04-24 23:40 | 26.99608 | 33.84470 | 3512 ft | 237 kts | 351° |
| 2026-04-24 23:41 | 27.01207 | 33.84093 | 3195 ft | 234 kts | 344° |
| 2026-04-24 23:41 | 27.02774 | 33.83611 | 2840 ft | 232 kts | 343° |
| 2026-04-24 23:41 | 27.04302 | 33.83139 | 2524 ft | 228 kts | 344° |
| 2026-04-24 23:41 | 27.05813 | 33.82682 | 2167 ft | 222 kts | 344° |
| 2026-04-24 23:42 | 27.07272 | 33.82240 | 1868 ft | 212 kts | 344° |
| 2026-04-24 23:42 | 27.08667 | 33.81823 | 1602 ft | 202 kts | 344° |
| 2026-04-24 23:42 | 27.09999 | 33.81428 | 1303 ft | 192 kts | 345° |
| 2026-04-24 23:42 | 27.11242 | 33.81061 | 1080 ft | 176 kts | 345° |
| 2026-04-24 23:43 | 27.12355 | 33.80732 | 1053 ft | 160 kts | 344° |
| 2026-04-24 23:43 | 27.13073 | 33.80518 | 918 ft | 164 kts | 344° |
| 2026-04-24 23:43 | 27.13964 | 33.80253 | 584 ft | 167 kts | 346° |
| 2026-04-24 23:43 | 27.15055 | 33.79931 | 335 ft | 158 kts | 345° |
| 2026-04-24 23:44 | 27.16104 | 33.79625 | 125 ft | 153 kts | 346° |
| 2026-04-24 23:44 | 27.16985 | 33.79366 | 108 ft | 105 kts | 345° |
| 2026-04-24 23:44 | 27.17493 | 33.79214 | 100 ft | 55 kts | 345° |
| 2026-04-24 23:44 | 27.17851 | 33.79109 | 99 ft | 50 kts | 345° |
| 2026-04-24 23:45 | 27.18156 | 33.79019 | 99 ft | 33 kts | 345° |
| 2026-04-24 23:45 | 27.18369 | 33.79006 | 100 ft | 30 kts | 9° |
| 2026-04-24 23:45 | 27.18544 | 33.79056 | 95 ft | 18 kts | 14° |
| 2026-04-24 23:45 | 27.18674 | 33.79064 | 94 ft | 19 kts | 349° |
| 2026-04-24 23:46 | 27.18740 | 33.79044 | 93 ft | 8 kts | 344° |
| 2026-04-24 23:46 | 27.18802 | 33.79024 | 92 ft | 10 kts | 345° |
| 2026-04-24 23:46 | 27.18879 | 33.79002 | 89 ft | 13 kts | 346° |
| 2026-04-24 23:46 | 27.18943 | 33.79057 | 88 ft | 15 kts | 74° |
| 2026-04-24 23:47 | 27.18973 | 33.79181 | 69 ft | 18 kts | 75° |
| 2026-04-24 23:47 | 27.19010 | 33.79337 | 63 ft | 23 kts | 75° |
| 2026-04-24 23:47 | 27.19056 | 33.79525 | 56 ft | 25 kts | 75° |
| 2026-04-24 23:47 | 27.19100 | 33.79710 | 60 ft | 24 kts | 75° |
| 2026-04-24 23:48 | 27.19141 | 33.79884 | 59 ft | 23 kts | 74° |
| 2026-04-24 23:48 | 27.19183 | 33.80054 | 57 ft | 23 kts | 75° |
| 2026-04-24 23:48 | 27.19210 | 33.80167 | 56 ft | 9 kts | 75° |
| 2026-04-24 23:48 | 27.19197 | 33.80228 | 52 ft | 10 kts | 146° |
| 2026-04-24 23:49 | 27.19110 | 33.80256 | 54 ft | 14 kts | 165° |
| 2026-04-24 23:49 | 27.19015 | 33.80284 | 51 ft | 14 kts | 165° |
| 2026-04-24 23:49 | 27.18926 | 33.80310 | 55 ft | 13 kts | 166° |
| 2026-04-24 23:49 | 27.18897 | 33.80332 | 52 ft | 4 kts | 95° |
| 2026-04-24 23:50 | 27.18905 | 33.80364 | 57 ft | 6 kts | 75° |
| 2026-04-24 23:50 | 27.18912 | 33.80391 | 57 ft | 1 kts | 75° |
| 2026-04-24 23:50 | 27.18912 | 33.80392 | 57 ft | 0 kts | 75° |